This is the latest recevied weather packets stored in our database for station/object HB9EKO-12. If no packets are shown the sender has not sent any weather packets the latest 10 day(s).
| Time | Temp. | Humidity | Pressure | Rain* | Wind** | Luminosity | Snow |
|---|---|---|---|---|---|---|---|
| 1777828579 | 16.67° C | 54% | 1015 hPa | - | - | - | - |
| 1777827674 | 17.22° C | 52% | 1015 hPa | - | - | - | - |
| 1777826769 | 17.78° C | 46% | 1016 hPa | - | - | - | - |
| 1777825864 | 18.33° C | 44% | 1016 hPa | - | - | - | - |
| 1777824958 | 18.89° C | 39% | 1015 hPa | - | - | - | - |
| 1777824053 | 19.44° C | 36% | 1015 hPa | - | - | - | - |
| 1777823148 | 20.56° C | 36% | 1015 hPa | - | - | - | - |
| 1777822243 | 21.67° C | 36% | 1014 hPa | - | - | - | - |
| 1777821337 | 24.44° C | 30% | 1014 hPa | - | - | - | - |
| 1777820432 | 25.56° C | 29% | 1014 hPa | - | - | - | - |
| 1777819527 | 26.11° C | 28% | 1013 hPa | - | - | - | - |
| 1777818622 | 27.22° C | 27% | 1013 hPa | - | - | - | - |
| 1777817716 | 27.78° C | 26% | 1014 hPa | - | - | - | - |
| 1777816811 | 27.22° C | 25% | 1014 hPa | - | - | - | - |
| 1777815906 | 26.11° C | 29% | 1014 hPa | - | - | - | - |
| 1777815001 | 25° C | 28% | 1014 hPa | - | - | - | - |
| 1777814095 | 26.11° C | 29% | 1014 hPa | - | - | - | - |
| 1777813190 | 26.11° C | 29% | 1014 hPa | - | - | - | - |
| 1777812285 | 25.56° C | 31% | 1014 hPa | - | - | - | - |
| 1777811380 | 25° C | 33% | 1015 hPa | - | - | - | - |
| 1777810475 | 25.56° C | 33% | 1015 hPa | - | - | - | - |
| 1777809569 | 25.56° C | 36% | 1015 hPa | - | - | - | - |
| 1777808664 | 24.44° C | 37% | 1015 hPa | - | - | - | - |
| 1777807759 | 24.44° C | 37% | 1015 hPa | - | - | - | - |
| 1777806854 | 23.33° C | 37% | 1015 hPa | - | - | - | - |
* Rain since midnight (hover to see other rain measurements)
** Current wind speed in m/s (hover to see current wind gust speed)